Time;durP1;ratioP1;P1;durP2;ratioP2;P2;SDS_P1;SDS_P2;PMS_P1;PMS_P2;Temp;Humidity;BMP_temperature;BMP_pressure;BME280_temperature;BME280_humidity;BME280_pressure;Samples;Min_cycle;Max_cycle;Signal;HPM_P1;HPM_P2
2021/04/16 00:01:52;;;;;;;4.63;2.03;;;;;;;3.96;87.28;101641.41;3553738;40;20064;-46
2021/04/16 00:04:20;;;;;;;3.83;1.95;;;;;;;4.06;86.64;101637.06;3553684;40;20053;-47
2021/04/16 00:06:46;;;;;;;6.72;2.47;;;;;;;3.82;87.62;101633.75;3553710;40;20057;-49
2021/04/16 00:09:14;;;;;;;2.58;1.85;;;;;;;3.94;86.26;101631.19;3553591;40;20054;-48
2021/04/16 00:11:41;;;;;;;6.55;2.10;;;;;;;3.84;88.04;101626.28;3553644;40;20101;-50
2021/04/16 00:14:09;;;;;;;3.45;1.65;;;;;;;3.90;87.81;101625.81;3553050;40;20049;-52
2021/04/16 00:16:36;;;;;;;4.95;1.80;;;;;;;3.94;87.82;101625.25;3553688;40;20054;-49
2021/04/16 00:19:03;;;;;;;4.68;1.88;;;;;;;3.75;88.22;101624.00;3553964;40;20081;-48
2021/04/16 00:21:29;;;;;;;4.57;2.20;;;;;;;3.41;89.33;101614.84;3553452;40;20062;-49
2021/04/16 00:23:56;;;;;;;4.43;1.67;;;;;;;3.68;89.11;101609.16;3553488;40;20073;-48
2021/04/16 00:26:23;;;;;;;3.47;1.70;;;;;;;3.73;88.06;101607.81;3553508;40;20050;-49
2021/04/16 00:28:50;;;;;;;5.05;2.17;;;;;;;3.56;88.13;101608.34;3553655;40;20153;-48
2021/04/16 00:31:21;;;;;;;7.68;2.47;;;;;;;3.65;88.67;101603.00;3550786;40;20050;-49
2021/04/16 00:33:48;;;;;;;6.07;2.05;;;;;;;3.57;88.24;101603.38;3553357;40;20690;-48
2021/04/16 00:36:15;;;;;;;5.18;1.80;;;;;;;3.72;87.72;101602.63;3553559;40;20113;-47
2021/04/16 00:38:42;;;;;;;3.30;2.03;;;;;;;3.91;87.93;101603.09;3553278;40;20101;-48
2021/04/16 00:41:14;;;;;;;3.80;1.77;;;;;;;3.75;88.22;101601.19;3553800;40;20049;-46
2021/04/16 00:43:41;;;;;;;4.30;2.08;;;;;;;3.83;87.48;101597.50;3553581;40;20060;-48
2021/04/16 00:46:10;;;;;;;3.40;1.70;;;;;;;3.63;87.56;101600.34;3552930;40;20596;-46
2021/04/16 00:48:42;;;;;;;3.75;1.83;;;;;;;3.82;86.49;101598.28;3553616;40;20065;-47
2021/04/16 00:51:20;;;;;;;6.63;1.55;;;;;;;3.99;85.57;101599.44;3552977;40;20358;-49
2021/04/16 00:53:47;;;;;;;5.93;1.92;;;;;;;3.63;86.14;101595.28;3553379;40;20061;-46
2021/04/16 00:56:14;;;;;;;4.53;1.45;;;;;;;3.77;86.52;101593.69;3553501;40;20050;-48
2021/04/16 00:58:41;;;;;;;3.45;1.25;;;;;;;3.57;87.09;101594.88;3553628;40;20057;-47
2021/04/16 01:01:09;;;;;;;6.40;1.75;;;;;;;3.59;87.50;101593.31;3552686;40;20053;-49
2021/04/16 01:03:36;;;;;;;5.70;1.80;;;;;;;3.69;86.65;101597.34;3553015;40;20085;-50
2021/04/16 01:06:09;;;;;;;3.70;1.90;;;;;;;3.61;86.32;101586.72;3553567;40;20108;-48
2021/04/16 01:08:37;;;;;;;5.80;1.63;;;;;;;3.65;86.24;101593.75;3553402;40;20120;-49
2021/04/16 01:11:08;;;;;;;3.03;1.58;;;;;;;3.71;86.85;101584.03;3553607;40;20050;-48
2021/04/16 01:13:38;;;;;;;6.15;1.63;;;;;;;3.61;85.38;101593.44;3553329;40;20064;-48
2021/04/16 01:16:09;;;;;;;4.20;1.52;;;;;;;3.63;85.92;101591.88;3553128;40;20094;-48
2021/04/16 01:18:45;;;;;;;2.85;1.20;;;;;;;3.71;86.30;101588.22;3553468;40;20054;-48
2021/04/16 01:21:16;;;;;;;4.72;2.10;;;;;;;3.55;86.75;101589.69;3553260;40;20042;-46
2021/04/16 01:23:54;;;;;;;4.05;1.63;;;;;;;3.60;86.06;101591.66;3553294;40;20168;-48
2021/04/16 01:26:30;;;;;;;4.93;1.52;;;;;;;3.85;84.50;101596.75;3550185;40;20442;-49
2021/04/16 01:28:57;;;;;;;6.05;1.30;;;;;;;3.97;83.91;101595.03;3553029;40;20140;-47
2021/04/16 01:31:27;;;;;;;3.05;1.48;;;;;;;3.93;84.05;101595.59;3553138;40;20358;-48
2021/04/16 01:33:54;;;;;;;4.05;1.33;;;;;;;3.93;83.45;101588.00;3552861;40;20058;-48
2021/04/16 01:36:25;;;;;;;4.63;1.40;;;;;;;3.74;83.88;101585.88;3552979;40;20117;-47
2021/04/16 01:38:54;;;;;;;2.80;1.00;;;;;;;4.00;83.96;101592.69;3553062;40;20069;-46
2021/04/16 01:41:23;;;;;;;2.85;1.38;;;;;;;3.88;84.13;101594.41;3553176;40;20094;-46
2021/04/16 01:43:56;;;;;;;6.07;1.33;;;;;;;4.14;82.90;101583.47;3552835;40;20074;-49
2021/04/16 01:46:24;;;;;;;3.13;1.17;;;;;;;4.05;82.82;101586.28;3550275;40;20450;-47
2021/04/16 01:48:55;;;;;;;4.68;1.48;;;;;;;4.07;81.71;101588.16;3553257;40;20093;-46
2021/04/16 01:51:29;;;;;;;3.53;1.40;;;;;;;3.91;82.68;101590.44;3553199;40;20059;-48
2021/04/16 01:54:23;;;;;;;3.60;1.35;;;;;;;3.95;83.43;101583.91;3557376;40;20187;-51
2021/04/16 01:56:53;;;;;;;2.03;1.30;;;;;;;3.67;84.18;101582.06;3557479;40;20054;-51
2021/04/16 01:59:23;;;;;;;4.25;1.40;;;;;;;3.95;83.67;101574.66;3551061;40;20090;-48
2021/04/16 02:01:50;;;;;;;4.63;1.30;;;;;;;4.18;81.51;101576.19;3553046;40;20058;-46
2021/04/16 02:04:19;;;;;;;5.47;1.33;;;;;;;3.76;82.86;101581.81;3549466;40;20052;-51
2021/04/16 02:06:47;;;;;;;5.82;1.85;;;;;;;3.95;82.92;101569.59;3552665;40;20061;-46
2021/04/16 02:09:16;;;;;;;4.28;1.00;;;;;;;3.98;81.70;101574.88;3552965;40;20093;-48
2021/04/16 02:11:43;;;;;;;4.07;1.27;;;;;;;4.04;82.38;101574.41;3552872;40;20054;-48
2021/04/16 02:14:12;;;;;;;4.30;1.58;;;;;;;3.94;82.05;101566.97;3553189;40;20339;-49
2021/04/16 02:16:41;;;;;;;3.42;1.13;;;;;;;3.79;83.33;101574.41;3553123;40;20073;-48
2021/04/16 02:19:09;;;;;;;3.65;1.20;;;;;;;3.88;82.16;101572.47;3552410;40;20067;-49
2021/04/16 02:21:35;;;;;;;3.45;1.10;;;;;;;3.87;82.92;101575.78;3552813;40;20066;-46
2021/04/16 02:24:05;;;;;;;6.05;1.27;;;;;;;3.64;83.08;101566.66;3552744;40;20066;-46
2021/04/16 02:26:32;;;;;;;7.90;1.75;;;;;;;3.80;83.42;101569.44;3552993;40;20057;-48
2021/04/16 02:28:59;;;;;;;2.95;1.30;;;;;;;3.74;82.95;101569.03;3552627;40;20049;-49
2021/04/16 02:31:26;;;;;;;3.25;1.15;;;;;;;3.75;83.29;101569.94;3552790;40;20229;-47
2021/04/16 02:33:53;;;;;;;6.07;1.10;;;;;;;4.03;81.56;101572.66;3552822;40;20082;-50
2021/04/16 02:36:19;;;;;;;2.38;1.13;;;;;;;4.33;80.56;101573.75;3552668;40;20364;-46
2021/04/16 02:38:46;;;;;;;5.72;1.38;;;;;;;3.94;82.08;101566.97;3552641;40;20069;-48
2021/04/16 02:41:12;;;;;;;4.68;1.13;;;;;;;3.78;83.48;101572.66;3552707;40;20131;-47
2021/04/16 02:43:39;;;;;;;2.00;1.27;;;;;;;4.27;81.24;101570.81;3552492;40;20050;-48
2021/04/16 02:46:05;;;;;;;3.85;1.35;;;;;;;4.04;82.55;101570.19;3552831;40;20155;-53
2021/04/16 02:48:32;;;;;;;4.47;1.20;;;;;;;3.76;82.05;101570.03;3552832;40;20135;-47
2021/04/16 02:50:58;;;;;;;2.42;1.10;;;;;;;3.89;82.74;101568.31;3552526;40;20057;-52
2021/04/16 02:53:25;;;;;;;3.97;1.40;;;;;;;3.86;83.25;101565.56;3552592;40;20439;-49
2021/04/16 02:55:51;;;;;;;5.93;1.27;;;;;;;3.72;82.83;101560.47;3552510;40;20060;-51
2021/04/16 02:58:18;;;;;;;7.03;1.70;;;;;;;4.05;82.10;101561.81;3552728;40;20448;-48
2021/04/16 03:00:45;;;;;;;4.28;1.20;;;;;;;3.85;81.79;101564.69;3552599;40;20092;-46
2021/04/16 03:03:11;;;;;;;3.47;1.20;;;;;;;3.99;81.55;101563.94;3552255;40;20061;-47
2021/04/16 03:05:38;;;;;;;4.07;1.58;;;;;;;4.04;81.68;101566.78;3552778;40;20097;-48
2021/04/16 03:08:04;;;;;;;2.90;1.08;;;;;;;4.07;80.83;101565.34;3553229;40;20812;-47
2021/04/16 03:10:34;;;;;;;4.47;1.20;;;;;;;3.89;82.24;101569.19;3553105;40;20076;-47
2021/04/16 03:13:00;;;;;;;4.90;1.00;;;;;;;4.21;80.20;101565.38;3552810;40;20064;-49
2021/04/16 03:15:27;;;;;;;4.20;1.40;;;;;;;4.32;80.37;101562.75;3552504;40;20146;-48
2021/04/16 03:17:54;;;;;;;5.18;1.13;;;;;;;4.05;81.06;101564.34;3552444;40;20102;-46
2021/04/16 03:20:23;;;;;;;4.50;1.35;;;;;;;4.05;81.26;101561.81;3552436;40;20135;-48
2021/04/16 03:22:50;;;;;;;2.10;0.93;;;;;;;3.85;82.17;101567.22;3552401;40;20049;-48
2021/04/16 03:25:18;;;;;;;5.25;1.13;;;;;;;3.86;82.49;101565.56;3550655;40;20046;-47
2021/04/16 03:27:45;;;;;;;4.47;1.50;;;;;;;3.98;82.64;101558.78;3554098;40;20082;-51
2021/04/16 03:30:21;;;;;;;3.22;1.10;;;;;;;3.94;81.93;101561.91;3554089;40;20050;-52
2021/04/16 03:32:47;;;;;;;4.72;1.25;;;;;;;3.70;82.53;101562.03;3553804;40;20443;-50
2021/04/16 03:35:15;;;;;;;5.20;1.20;;;;;;;4.20;80.95;101567.00;3554081;40;20057;-47
2021/04/16 03:37:42;;;;;;;3.85;1.25;;;;;;;4.01;81.79;101566.56;3553879;40;20057;-50
2021/04/16 03:40:11;;;;;;;3.75;1.55;;;;;;;4.00;83.34;101567.38;3553505;40;20058;-47
2021/04/16 03:42:38;;;;;;;3.20;1.55;;;;;;;3.87;83.13;101570.72;3553714;40;20050;-47
2021/04/16 03:45:05;;;;;;;3.58;1.52;;;;;;;3.91;82.05;101570.16;3554086;40;20086;-52
2021/04/16 03:47:32;;;;;;;4.93;1.10;;;;;;;3.78;83.36;101570.13;3553961;40;20474;-47
2021/04/16 03:49:59;;;;;;;3.55;1.30;;;;;;;3.82;83.39;101577.16;3553752;40;20050;-49
2021/04/16 03:52:28;;;;;;;3.88;1.35;;;;;;;3.81;84.21;101576.28;3553690;40;20130;-47
2021/04/16 03:54:55;;;;;;;6.22;1.52;;;;;;;3.98;83.88;101579.06;3553983;40;20041;-47
2021/04/16 03:57:22;;;;;;;5.10;1.45;;;;;;;4.20;82.51;101573.72;3554038;40;20788;-46
2021/04/16 03:59:49;;;;;;;3.85;1.33;;;;;;;3.83;82.36;101578.91;3553871;40;20722;-47
2021/04/16 04:02:15;;;;;;;5.28;1.33;;;;;;;3.88;83.10;101574.13;3553643;40;20101;-48
2021/04/16 04:04:42;;;;;;;6.22;1.80;;;;;;;4.17;82.79;101571.88;3553856;40;20089;-50
2021/04/16 04:07:08;;;;;;;3.00;1.30;;;;;;;4.33;80.74;101577.16;3553939;40;20101;-47
2021/04/16 04:09:36;;;;;;;3.40;1.20;;;;;;;4.41;80.58;101577.66;3554247;40;20088;-50
2021/04/16 04:12:04;;;;;;;5.53;1.08;;;;;;;4.33;80.56;101574.63;3553866;40;20085;-47
2021/04/16 04:14:31;;;;;;;5.65;1.30;;;;;;;4.19;81.66;101579.59;3553890;40;20056;-48
2021/04/16 04:17:00;;;;;;;4.03;1.63;;;;;;;4.37;80.05;101574.84;3553883;40;20065;-50
2021/04/16 04:19:29;;;;;;;4.50;2.25;;;;;;;4.14;81.05;101573.34;3553575;40;20519;-46
2021/04/16 04:21:58;;;;;;;7.38;1.80;;;;;;;4.13;81.78;101574.13;3553340;40;20084;-49
2021/04/16 04:24:25;;;;;;;5.07;1.63;;;;;;;4.00;81.84;101574.97;3553615;40;20053;-51
2021/04/16 04:26:52;;;;;;;4.90;1.65;;;;;;;4.48;80.55;101571.31;3553576;40;20086;-47
2021/04/16 04:29:21;;;;;;;4.15;1.90;;;;;;;4.36;81.86;101573.97;3553648;40;20102;-51
2021/04/16 04:31:48;;;;;;;4.93;1.30;;;;;;;4.18;81.61;101573.63;3553651;40;20090;-49
2021/04/16 04:34:23;;;;;;;4.60;1.42;;;;;;;4.37;80.56;101579.91;3553390;40;20049;-48
2021/04/16 04:36:53;;;;;;;5.57;1.73;;;;;;;4.29;80.63;101582.81;3553573;40;20628;-47
2021/04/16 04:39:21;;;;;;;4.07;1.63;;;;;;;4.07;82.40;101585.63;3550275;40;20093;-46
2021/04/16 04:41:47;;;;;;;5.75;2.33;;;;;;;4.33;80.93;101582.22;3553296;40;20065;-49
2021/04/16 04:44:14;;;;;;;4.30;1.52;;;;;;;4.48;81.41;101592.47;3553444;40;20062;-48
2021/04/16 04:46:41;;;;;;;6.75;1.92;;;;;;;4.60;81.13;101582.25;3553324;40;20117;-47
2021/04/16 04:49:09;;;;;;;7.40;1.63;;;;;;;4.43;80.26;101592.97;3552952;40;20050;-46
2021/04/16 04:51:37;;;;;;;4.00;1.60;;;;;;;4.58;80.31;101588.91;3553948;40;20348;-48
2021/04/16 04:54:05;;;;;;;2.95;1.40;;;;;;;4.47;79.95;101592.41;3553628;40;20088;-46
2021/04/16 04:56:32;;;;;;;5.30;1.50;;;;;;;4.56;80.40;101598.06;3553298;40;20058;-52
2021/04/16 04:58:58;;;;;;;3.50;1.58;;;;;;;4.68;79.95;101591.25;3553366;40;20053;-47
2021/04/16 05:01:25;;;;;;;5.75;1.83;;;;;;;4.34;81.78;101593.25;3553371;40;20313;-46
2021/04/16 05:03:52;;;;;;;3.08;1.30;;;;;;;4.49;81.04;101601.88;3553243;40;20410;-49
2021/04/16 05:06:18;;;;;;;5.13;1.75;;;;;;;4.39;81.56;101602.06;3553347;40;20144;-44
2021/04/16 05:08:45;;;;;;;15.90;11.68;;;;;;;4.29;81.58;101592.06;3553393;40;20061;-45
2021/04/16 05:11:11;;;;;;;6.80;4.40;;;;;;;4.53;81.50;101601.31;3553291;40;20065;-43
2021/04/16 05:13:39;;;;;;;8.88;2.13;;;;;;;4.65;80.68;101602.84;3553125;40;20066;-46
2021/04/16 05:16:08;;;;;;;6.72;1.80;;;;;;;4.78;79.67;101595.25;3553489;40;20086;-45
2021/04/16 05:18:37;;;;;;;6.43;1.75;;;;;;;4.56;80.70;101604.00;3553466;40;20050;-49
2021/04/16 05:21:06;;;;;;;4.00;2.13;;;;;;;4.55;81.33;101601.38;3553121;40;20082;-46
2021/04/16 05:23:33;;;;;;;4.60;1.42;;;;;;;4.74;80.81;101593.28;3553125;40;20073;-43
2021/04/16 05:26:00;;;;;;;3.00;1.70;;;;;;;5.00;79.12;101605.09;3553019;40;20050;-48
2021/04/16 05:28:27;;;;;;;3.00;1.40;;;;;;;4.94;79.17;101599.63;3553005;40;20081;-46
2021/04/16 05:30:54;;;;;;;7.85;1.55;;;;;;;4.81;79.75;101598.00;3552647;40;20041;-44
2021/04/16 05:33:20;;;;;;;5.22;1.70;;;;;;;4.98;79.86;101599.03;3552947;40;20090;-47
2021/04/16 05:35:48;;;;;;;5.68;1.73;;;;;;;4.85;80.09;101589.75;3551968;40;20049;-47
2021/04/16 05:38:18;;;;;;;7.70;1.55;;;;;;;4.69;80.15;101593.00;3551152;40;20143;-51
2021/04/16 05:40:44;;;;;;;5.03;1.40;;;;;;;4.79;80.36;101599.53;3553152;40;20046;-48
2021/04/16 05:43:11;;;;;;;6.07;1.38;;;;;;;5.05;79.28;101599.53;3552914;40;20061;-50
2021/04/16 05:45:37;;;;;;;6.63;1.63;;;;;;;5.19;79.07;101599.50;3552324;40;20057;-44
2021/04/16 05:48:05;;;;;;;8.20;1.65;;;;;;;5.08;78.77;101603.88;3551991;40;20081;-45
2021/04/16 05:50:31;;;;;;;5.38;1.77;;;;;;;5.20;78.46;101612.28;3554733;40;20550;-47
2021/04/16 05:53:02;;;;;;;7.13;2.35;;;;;;;5.20;78.95;101606.31;3553793;40;20088;-50
2021/04/16 05:55:30;;;;;;;7.10;1.88;;;;;;;4.83;80.14;101606.56;3556947;40;20064;-44
2021/04/16 05:57:58;;;;;;;4.00;1.67;;;;;;;5.22;78.29;101614.91;3553569;40;20053;-45
2021/04/16 06:00:25;;;;;;;3.70;1.75;;;;;;;5.30;77.69;101606.97;3552922;40;20838;-46
2021/04/16 06:02:51;;;;;;;6.60;2.40;;;;;;;5.46;78.35;101607.94;3552723;40;20058;-47
2021/04/16 06:05:20;;;;;;;3.42;1.95;;;;;;;5.46;77.81;101606.28;3552877;40;20081;-47
2021/04/16 06:07:47;;;;;;;5.43;1.58;;;;;;;5.16;79.18;101607.78;3552693;40;20113;-44
2021/04/16 06:10:16;;;;;;;6.82;1.80;;;;;;;5.57;78.45;101607.78;3552736;40;20092;-49
2021/04/16 06:12:43;;;;;;;6.80;1.70;;;;;;;5.56;78.42;101603.50;3552841;40;20053;-47
2021/04/16 06:15:18;;;;;;;7.55;1.85;;;;;;;5.53;78.16;101608.38;3552804;40;20118;-44
2021/04/16 06:17:45;;;;;;;8.40;2.10;;;;;;;5.43;78.64;101608.63;3552828;40;20057;-44
2021/04/16 06:20:14;;;;;;;5.28;1.67;;;;;;;5.78;77.61;101607.34;3553820;40;20058;-45
2021/04/16 06:22:40;;;;;;;3.97;1.55;;;;;;;5.19;79.27;101602.03;3554560;40;20619;-44
2021/04/16 06:25:09;;;;;;;4.88;1.67;;;;;;;5.52;78.63;101613.38;3552621;40;20423;-50
2021/04/16 06:27:36;;;;;;;6.50;1.92;;;;;;;5.69;77.01;101611.88;3552820;40;20062;-46
2021/04/16 06:30:05;;;;;;;5.28;2.25;;;;;;;5.57;77.40;101612.00;3553020;40;20057;-46
2021/04/16 06:32:32;;;;;;;4.80;1.92;;;;;;;5.85;77.21;101612.84;3552133;40;20094;-51
2021/04/16 06:34:59;;;;;;;6.00;1.98;;;;;;;6.15;75.88;101604.41;3552343;40;20109;-48
2021/04/16 06:37:26;;;;;;;6.82;1.70;;;;;;;6.40;76.05;101606.72;3552754;40;20056;-47
2021/04/16 06:39:55;;;;;;;5.32;1.85;;;;;;;6.51;75.18;101606.53;3552830;40;20058;-49
2021/04/16 06:42:26;;;;;;;6.20;1.67;;;;;;;6.25;74.99;101620.31;3552612;40;20058;-44
2021/04/16 06:44:55;;;;;;;4.60;1.65;;;;;;;6.18;75.50;101607.16;3551503;40;20058;-47
2021/04/16 06:47:31;;;;;;;6.05;1.40;;;;;;;6.13;74.88;101614.53;3552324;40;20088;-46
2021/04/16 06:49:59;;;;;;;4.03;1.27;;;;;;;6.33;75.07;101610.56;3551785;40;20135;-47
2021/04/16 06:52:37;;;;;;;4.95;1.45;;;;;;;6.32;75.10;101602.06;3551706;40;20086;-45
2021/04/16 06:55:13;;;;;;;8.27;1.80;;;;;;;6.25;75.86;101599.97;3552162;40;20054;-51
2021/04/16 06:57:52;;;;;;;6.30;2.03;;;;;;;6.29;76.79;101601.91;3552205;40;20054;-45
2021/04/16 07:00:46;;;;;;;5.03;1.90;;;;;;;6.73;73.43;101600.13;3553788;40;20062;-47
2021/04/16 07:03:24;;;;;;;4.85;1.55;;;;;;;6.92;73.81;101604.56;3553678;40;20462;-43
2021/04/16 07:06:09;;;;;;;6.00;1.52;;;;;;;6.48;74.46;101596.22;3553893;40;20086;-47
2021/04/16 07:08:50;;;;;;;5.25;1.85;;;;;;;6.86;73.47;101600.88;3552749;40;20090;-44
2021/04/16 07:11:24;;;;;;;4.78;1.50;;;;;;;7.22;71.91;101601.13;3557157;40;20091;-45
2021/04/16 07:13:50;;;;;;;5.45;1.60;;;;;;;7.20;72.07;101605.25;3556481;40;20062;-47
2021/04/16 07:16:20;;;;;;;4.55;1.58;;;;;;;7.39;73.42;101608.03;3550861;40;20149;-48
2021/04/16 07:18:53;;;;;;;5.00;2.22;;;;;;;7.48;71.54;101610.16;3553336;40;20159;-43
2021/04/16 07:21:21;;;;;;;5.65;1.83;;;;;;;7.57;70.77;101612.31;3553972;40;20320;-49
2021/04/16 07:24:00;;;;;;;6.70;2.55;;;;;;;7.11;71.70;101612.41;3556166;40;20058;-47
2021/04/16 07:26:37;;;;;;;6.57;1.58;;;;;;;7.47;71.39;101607.53;3558172;40;20284;-44
2021/04/16 07:29:07;;;;;;;5.88;2.35;;;;;;;7.35;71.21;101608.66;3557719;40;20057;-45
2021/04/16 07:31:42;;;;;;;10.02;4.53;;;;;;;7.61;70.80;101610.00;3558492;40;20053;-44
2021/04/16 07:34:30;;;;;;;18.05;12.95;;;;;;;7.63;70.57;101612.66;3557817;40;20051;-47
2021/04/16 07:37:27;;;;;;;8.60;6.28;;;;;;;7.31;70.80;101613.50;3556013;40;20469;-45
2021/04/16 07:40:08;;;;;;;4.53;1.60;;;;;;;7.79;68.79;101614.31;3556571;40;20483;-48
2021/04/16 07:42:41;;;;;;;4.22;1.98;;;;;;;7.43;70.19;101619.22;3556159;40;20061;-44
2021/04/16 07:45:17;;;;;;;7.07;2.08;;;;;;;7.82;69.55;101615.34;3557957;40;20403;-44
2021/04/16 07:47:46;;;;;;;6.65;1.83;;;;;;;7.55;70.45;101608.81;3558972;40;20205;-46
2021/04/16 07:50:41;;;;;;;4.10;1.75;;;;;;;7.84;69.74;101610.31;3557961;40;20038;-45
2021/04/16 07:53:37;;;;;;;19.80;8.95;;;;;;;8.00;67.58;101617.97;3557070;40;20054;-43
2021/04/16 07:56:19;;;;;;;9.82;4.93;;;;;;;7.86;67.89;101621.50;3557211;40;20057;-45
2021/04/16 07:59:10;;;;;;;27.25;16.20;;;;;;;8.26;68.88;101609.06;3557400;40;20131;-45
2021/04/16 08:01:43;;;;;;;9.60;4.70;;;;;;;8.30;67.00;101605.88;3557874;40;20096;-45
2021/04/16 08:04:13;;;;;;;11.77;6.70;;;;;;;8.51;66.23;101607.78;3557655;40;20052;-43
2021/04/16 08:06:45;;;;;;;4.05;1.85;;;;;;;8.68;64.89;101615.41;3557088;40;20168;-46
2021/04/16 08:09:13;;;;;;;3.35;1.58;;;;;;;8.88;65.50;101616.38;3555487;40;20058;-46
2021/04/16 08:11:41;;;;;;;9.32;2.03;;;;;;;8.48;65.15;101615.28;3557591;40;20093;-47
2021/04/16 08:14:19;;;;;;;8.40;1.70;;;;;;;8.49;64.48;101623.00;3557875;40;20135;-48
2021/04/16 08:16:59;;;;;;;5.50;1.80;;;;;;;9.38;62.33;101624.63;3557114;40;20067;-50
2021/04/16 08:19:29;;;;;;;3.72;1.48;;;;;;;9.16;63.45;101630.47;3558694;40;20416;-44
2021/04/16 08:22:18;;;;;;;3.42;1.40;;;;;;;9.11;62.16;101626.81;3557948;40;20378;-43
2021/04/16 08:25:03;;;;;;;3.15;1.75;;;;;;;9.05;62.12;101626.50;3558212;40;20057;-48
2021/04/16 08:27:53;;;;;;;5.53;1.60;;;;;;;9.29;63.68;101622.56;3557631;40;20076;-44
2021/04/16 08:30:42;;;;;;;10.88;1.98;;;;;;;9.60;61.09;101629.91;3552922;40;20045;-46
2021/04/16 08:33:23;;;;;;;5.43;1.35;;;;;;;9.58;60.81;101626.41;3555114;40;20251;-43
2021/04/16 08:36:18;;;;;;;2.80;1.10;;;;;;;9.54;62.03;101624.53;3556243;40;20038;-44
2021/04/16 08:39:12;;;;;;;5.88;1.40;;;;;;;9.42;60.38;101629.94;3557060;40;20132;-47
2021/04/16 08:42:19;;;;;;;3.30;1.48;;;;;;;8.97;61.27;101638.03;3556873;40;20053;-44
2021/04/16 08:44:58;;;;;;;2.83;1.10;;;;;;;9.31;60.74;101635.41;3557349;40;20050;-44
2021/04/16 08:47:43;;;;;;;4.30;1.25;;;;;;;9.07;60.69;101627.47;3557176;40;20226;-47
2021/04/16 08:50:11;;;;;;;4.85;1.40;;;;;;;8.68;62.67;101629.88;3563865;40;20473;-47
2021/04/16 08:52:47;;;;;;;6.93;1.33;;;;;;;9.23;62.62;101635.03;3558401;40;20053;-45
2021/04/16 08:55:42;;;;;;;4.20;1.08;;;;;;;9.38;60.42;101627.19;3557044;40;20053;-46
2021/04/16 08:58:15;;;;;;;6.68;1.70;;;;;;;8.95;62.39;101634.56;3556392;40;20086;-43
2021/04/16 09:00:52;;;;;;;7.57;2.47;;;;;;;9.33;60.94;101628.66;3556816;40;20053;-46
2021/04/16 09:03:25;;;;;;;5.50;2.53;;;;;;;9.86;59.54;101628.50;3557532;40;20057;-43
2021/04/16 09:05:58;;;;;;;5.90;2.42;;;;;;;9.57;58.92;101627.22;3556384;40;20640;-44
2021/04/16 09:08:34;;;;;;;9.25;5.47;;;;;;;9.59;59.15;101629.84;3557987;40;20057;-44
2021/04/16 09:11:11;;;;;;;5.07;1.70;;;;;;;9.36;59.00;101626.25;3556652;40;20141;-43
2021/04/16 09:13:39;;;;;;;7.68;1.77;;;;;;;9.62;59.91;101628.31;3556855;40;20058;-45
2021/04/16 09:16:48;;;;;;;5.75;1.77;;;;;;;9.44;58.08;101623.25;3557672;40;20057;-49
2021/04/16 09:19:43;;;;;;;8.25;2.75;;;;;;;9.43;58.22;101621.50;3557233;40;20045;-45
2021/04/16 09:22:24;;;;;;;5.55;2.28;;;;;;;9.85;57.58;101620.78;3553529;40;20068;-45
2021/04/16 09:25:38;;;;;;;5.43;2.05;;;;;;;9.57;58.56;101616.13;3555745;40;20057;-45
2021/04/16 09:28:49;;;;;;;6.35;2.33;;;;;;;10.13;57.46;101610.03;3556450;40;20627;-44
2021/04/16 09:31:22;;;;;;;3.63;1.40;;;;;;;9.95;57.64;101620.38;3556968;40;20054;-44
2021/04/16 09:34:05;;;;;;;4.88;1.58;;;;;;;9.51;58.04;101613.28;3556719;40;20078;-48
2021/04/16 09:36:33;;;;;;;5.25;1.60;;;;;;;9.44;59.18;101630.03;3557484;40;20139;-45
2021/04/16 09:39:13;;;;;;;4.35;1.67;;;;;;;9.70;57.87;101623.50;3556759;40;20061;-45
2021/04/16 09:41:50;;;;;;;4.00;1.80;;;;;;;8.89;60.35;101630.03;3557197;40;20059;-45
2021/04/16 09:44:29;;;;;;;4.50;1.58;;;;;;;9.36;57.84;101616.03;3556120;40;20064;-49
2021/04/16 09:47:03;;;;;;;4.53;1.20;;;;;;;9.23;58.32;101629.06;3555743;40;20045;-46
2021/04/16 09:49:38;;;;;;;4.60;1.48;;;;;;;9.83;57.59;101630.06;3554151;40;20061;-47
2021/04/16 09:52:38;;;;;;;3.53;1.20;;;;;;;9.86;57.39;101625.94;3556360;40;20081;-45
2021/04/16 09:55:45;;;;;;;4.32;1.30;;;;;;;10.09;56.57;101618.38;3556021;40;20045;-49
2021/04/16 09:58:33;;;;;;;7.90;1.60;;;;;;;9.51;58.35;101620.94;3557151;40;20089;-45
2021/04/16 10:01:16;;;;;;;4.45;1.27;;;;;;;10.11;56.08;101627.00;3556471;40;20058;-47
2021/04/16 10:03:48;;;;;;;5.30;1.50;;;;;;;10.16;56.34;101623.81;3557287;40;20054;-47
2021/04/16 10:06:32;;;;;;;4.53;1.27;;;;;;;10.28;55.60;101617.50;3557516;40;20050;-48
2021/04/16 10:09:20;;;;;;;5.13;1.95;;;;;;;10.28;55.85;101617.50;3556363;40;20057;-47
2021/04/16 10:11:55;;;;;;;3.85;1.50;;;;;;;10.66;56.80;101625.06;3557891;40;20069;-45
2021/04/16 10:14:41;;;;;;;7.63;1.88;;;;;;;9.66;56.98;101613.97;3557238;40;20050;-46
2021/04/16 10:17:11;;;;;;;2.90;1.58;;;;;;;10.53;55.39;101611.69;3556395;40;20358;-44
2021/04/16 10:19:48;;;;;;;6.00;1.33;;;;;;;10.50;53.64;101612.47;3557338;40;20398;-43
2021/04/16 10:22:29;;;;;;;6.43;1.48;;;;;;;9.92;55.97;101617.66;3556654;40;20112;-44
2021/04/16 12:38:35;;;;;;;2.65;1.20;;;;;;;15.61;32.96;101560.13;3550180;40;20490;-45
2021/04/16 12:41:07;;;;;;;3.80;1.50;;;;;;;15.84;32.25;101563.16;3553488;40;20045;-44
2021/04/16 12:43:36;;;;;;;3.53;0.90;;;;;;;16.01;34.38;101560.03;3553533;40;20085;-50
2021/04/16 12:46:06;;;;;;;2.03;0.95;;;;;;;15.93;33.43;101558.16;3554746;40;20085;-46
2021/04/16 12:48:32;;;;;;;4.65;1.45;;;;;;;17.43;32.09;101557.81;3553492;40;20415;-48
2021/04/16 12:51:00;;;;;;;4.00;1.30;;;;;;;18.46;31.24;101560.50;3553557;40;20357;-46
2021/04/16 12:53:47;;;;;;;4.10;1.25;;;;;;;16.67;31.93;101548.16;3553439;40;20066;-46
2021/04/16 12:56:38;;;;;;;2.90;1.42;;;;;;;16.97;32.73;101552.94;3553168;40;20038;-52
2021/04/16 12:59:14;;;;;;;6.65;1.42;;;;;;;17.90;31.60;101552.28;3555090;40;20085;-45
2021/04/16 13:01:44;;;;;;;4.57;1.38;;;;;;;17.72;31.67;101538.25;3553412;40;20050;-46
2021/04/16 13:04:15;;;;;;;4.45;1.20;;;;;;;16.41;34.27;101545.19;3560144;40;20327;-49
2021/04/16 13:06:47;;;;;;;3.45;1.33;;;;;;;15.35;35.20;101534.69;3553061;40;20048;-47
2021/04/16 13:09:19;;;;;;;3.85;0.93;;;;;;;17.86;31.81;101537.56;3555446;40;20086;-51
2021/04/16 13:11:49;;;;;;;2.78;1.15;;;;;;;18.10;31.17;101536.91;3555834;40;20105;-48
2021/04/16 13:14:18;;;;;;;4.40;1.20;;;;;;;18.25;31.57;101537.00;3553320;40;20151;-50
2021/04/16 13:16:45;;;;;;;3.67;1.55;;;;;;;18.54;31.88;101534.66;3553169;40;20046;-48
2021/04/16 13:19:35;;;;;;;2.70;1.10;;;;;;;18.16;29.40;101531.75;3556341;40;20138;-47
2021/04/16 13:22:14;;;;;;;3.67;1.27;;;;;;;18.76;28.11;101526.13;3557756;40;20139;-50
2021/04/16 13:24:43;;;;;;;2.80;1.00;;;;;;;18.55;28.86;101534.66;3557961;40;20046;-46
2021/04/16 13:27:15;;;;;;;4.68;1.15;;;;;;;19.65;27.61;101531.69;3558225;40;20085;-51
2021/04/16 13:29:45;;;;;;;3.30;1.40;;;;;;;18.08;29.46;101533.44;3556213;40;20053;-50
2021/04/16 13:32:21;;;;;;;1.98;1.05;;;;;;;18.28;29.19;101526.66;3556692;40;20064;-50
2021/04/16 13:34:49;;;;;;;4.35;1.65;;;;;;;18.68;29.58;101530.41;3554831;40;20473;-48
2021/04/16 13:37:18;;;;;;;6.05;1.38;;;;;;;18.06;29.31;101530.81;3556301;40;20058;-46
2021/04/16 13:39:47;;;;;;;2.53;1.10;;;;;;;17.35;31.00;101525.78;3552709;40;20060;-49
2021/04/16 13:42:15;;;;;;;2.58;1.08;;;;;;;16.56;33.64;101526.44;3552822;40;20056;-51
2021/04/16 13:44:42;;;;;;;3.03;1.25;;;;;;;16.39;33.48;101533.06;3553122;40;20060;-46
2021/04/16 13:47:17;;;;;;;4.15;1.27;;;;;;;16.20;33.17;101524.16;3550908;40;20057;-49
2021/04/16 13:49:44;;;;;;;5.18;1.63;;;;;;;17.64;30.91;101523.47;3551952;40;20058;-50
2021/04/16 13:52:11;;;;;;;4.18;1.27;;;;;;;17.67;30.67;101531.28;3551585;40;20060;-50
2021/04/16 13:54:38;;;;;;;3.55;1.30;;;;;;;18.13;29.93;101530.03;3551935;40;20117;-49
2021/04/16 13:57:06;;;;;;;6.18;1.50;;;;;;;18.91;28.81;101532.28;3552020;40;20885;-51
2021/04/16 13:59:33;;;;;;;3.78;1.27;;;;;;;21.42;26.51;101551.38;3551744;40;20573;-53
2021/04/16 14:02:00;;;;;;;1.90;1.10;;;;;;;21.13;25.25;101540.22;3552492;40;20065;-48
2021/04/16 14:04:33;;;;;;;4.40;1.40;;;;;;;20.92;25.11;101531.59;3552929;40;20133;-49
2021/04/16 14:07:00;;;;;;;3.42;1.27;;;;;;;21.12;24.42;101531.50;3552220;40;20056;-47
2021/04/16 14:09:28;;;;;;;3.58;1.10;;;;;;;16.80;30.23;101533.72;3553557;40;20352;-47